sensor_id;sensor_type;location;lat;lon;timestamp;temperature;humidity
21261;DHT22;10788;47.930;9.766;2022-07-29T00:02:10;18.60;99.90
21261;DHT22;10788;47.930;9.766;2022-07-29T00:04:36;18.50;99.90
21261;DHT22;10788;47.930;9.766;2022-07-29T00:07:03;18.50;99.90
21261;DHT22;10788;47.930;9.766;2022-07-29T00:09:28;18.50;99.90
21261;DHT22;10788;47.930;9.766;2022-07-29T00:11:58;18.50;99.90
21261;DHT22;10788;47.930;9.766;2022-07-29T00:14:24;18.50;99.90
21261;DHT22;10788;47.930;9.766;2022-07-29T00:16:50;18.50;99.90
21261;DHT22;10788;47.930;9.766;2022-07-29T00:19:15;18.50;99.90
21261;DHT22;10788;47.930;9.766;2022-07-29T00:21:41;18.50;99.90
21261;DHT22;10788;47.930;9.766;2022-07-29T00:24:07;18.50;99.90
21261;DHT22;10788;47.930;9.766;2022-07-29T00:26:32;18.50;99.90
21261;DHT22;10788;47.930;9.766;2022-07-29T00:28:59;18.60;99.90
21261;DHT22;10788;47.930;9.766;2022-07-29T00:31:25;18.60;99.90
21261;DHT22;10788;47.930;9.766;2022-07-29T00:33:51;18.60;99.90
21261;DHT22;10788;47.930;9.766;2022-07-29T00:36:17;18.70;99.90
21261;DHT22;10788;47.930;9.766;2022-07-29T00:38:42;18.70;99.90
21261;DHT22;10788;47.930;9.766;2022-07-29T00:41:11;18.60;99.90
21261;DHT22;10788;47.930;9.766;2022-07-29T00:43:37;18.60;99.90
21261;DHT22;10788;47.930;9.766;2022-07-29T00:46:03;18.60;99.90
21261;DHT22;10788;47.930;9.766;2022-07-29T00:48:28;18.60;99.90
21261;DHT22;10788;47.930;9.766;2022-07-29T00:50:56;18.50;99.90
21261;DHT22;10788;47.930;9.766;2022-07-29T00:53:22;18.40;99.90
21261;DHT22;10788;47.930;9.766;2022-07-29T00:55:48;18.40;99.90
21261;DHT22;10788;47.930;9.766;2022-07-29T00:58:14;18.30;99.90
21261;DHT22;10788;47.930;9.766;2022-07-29T01:00:40;18.30;99.90
21261;DHT22;10788;47.930;9.766;2022-07-29T01:03:06;18.30;99.90
21261;DHT22;10788;47.930;9.766;2022-07-29T01:05:32;18.20;99.90
21261;DHT22;10788;47.930;9.766;2022-07-29T01:08:00;18.20;99.90
21261;DHT22;10788;47.930;9.766;2022-07-29T01:10:27;18.20;99.90
21261;DHT22;10788;47.930;9.766;2022-07-29T01:12:56;18.20;99.90
21261;DHT22;10788;47.930;9.766;2022-07-29T01:15:22;18.20;99.90
21261;DHT22;10788;47.930;9.766;2022-07-29T01:17:59;18.30;99.90
21261;DHT22;10788;47.930;9.766;2022-07-29T01:29:00;18.10;99.90
21261;DHT22;10788;47.930;9.766;2022-07-29T01:31:43;18.10;99.90
21261;DHT22;10788;47.930;9.766;2022-07-29T01:34:15;18.10;99.90
21261;DHT22;10788;47.930;9.766;2022-07-29T01:36:43;18.00;99.90
21261;DHT22;10788;47.930;9.766;2022-07-29T01:39:12;17.90;99.90
21261;DHT22;10788;47.930;9.766;2022-07-29T01:41:47;17.80;99.90
21261;DHT22;10788;47.930;9.766;2022-07-29T01:44:22;17.50;99.90
21261;DHT22;10788;47.930;9.766;2022-07-29T01:46:58;17.30;99.90
21261;DHT22;10788;47.930;9.766;2022-07-29T01:49:28;17.30;99.90
21261;DHT22;10788;47.930;9.766;2022-07-29T01:52:00;17.30;99.90
21261;DHT22;10788;47.930;9.766;2022-07-29T01:54:38;17.30;99.90
21261;DHT22;10788;47.930;9.766;2022-07-29T01:57:06;17.40;99.90
21261;DHT22;10788;47.930;9.766;2022-07-29T01:59:34;17.40;99.90
21261;DHT22;10788;47.930;9.766;2022-07-29T02:02:01;17.40;99.90
21261;DHT22;10788;47.930;9.766;2022-07-29T02:04:29;17.50;99.90
21261;DHT22;10788;47.930;9.766;2022-07-29T02:06:58;17.50;99.90
21261;DHT22;10788;47.930;9.766;2022-07-29T02:09:25;17.60;99.90
21261;DHT22;10788;47.930;9.766;2022-07-29T02:11:53;17.60;99.90
21261;DHT22;10788;47.930;9.766;2022-07-29T02:14:21;17.60;99.90
21261;DHT22;10788;47.930;9.766;2022-07-29T02:16:50;17.50;99.90
21261;DHT22;10788;47.930;9.766;2022-07-29T02:19:18;17.50;99.90
21261;DHT22;10788;47.930;9.766;2022-07-29T02:21:45;17.50;99.90
21261;DHT22;10788;47.930;9.766;2022-07-29T02:24:12;17.40;99.90
21261;DHT22;10788;47.930;9.766;2022-07-29T02:26:41;17.40;99.90
21261;DHT22;10788;47.930;9.766;2022-07-29T02:29:08;17.40;99.90
21261;DHT22;10788;47.930;9.766;2022-07-29T02:31:35;17.40;99.90
21261;DHT22;10788;47.930;9.766;2022-07-29T02:34:06;17.40;99.90
21261;DHT22;10788;47.930;9.766;2022-07-29T02:36:34;17.30;99.90
21261;DHT22;10788;47.930;9.766;2022-07-29T02:39:02;17.40;99.90
21261;DHT22;10788;47.930;9.766;2022-07-29T02:43:57;17.40;99.90
21261;DHT22;10788;47.930;9.766;2022-07-29T02:46:31;17.40;99.90
21261;DHT22;10788;47.930;9.766;2022-07-29T02:49:13;17.40;99.90
21261;DHT22;10788;47.930;9.766;2022-07-29T02:51:43;17.50;99.90
21261;DHT22;10788;47.930;9.766;2022-07-29T02:54:11;17.50;99.90
21261;DHT22;10788;47.930;9.766;2022-07-29T02:56:40;17.50;99.90
21261;DHT22;10788;47.930;9.766;2022-07-29T02:59:10;17.40;99.90
21261;DHT22;10788;47.930;9.766;2022-07-29T03:01:40;17.40;99.90
21261;DHT22;10788;47.930;9.766;2022-07-29T03:04:08;17.20;99.90
21261;DHT22;10788;47.930;9.766;2022-07-29T03:06:35;17.20;99.90
21261;DHT22;10788;47.930;9.766;2022-07-29T03:09:03;17.20;99.90
21261;DHT22;10788;47.930;9.766;2022-07-29T03:11:29;17.10;99.90
21261;DHT22;10788;47.930;9.766;2022-07-29T03:13:55;17.10;99.90
21261;DHT22;10788;47.930;9.766;2022-07-29T03:16:22;17.10;99.90
21261;DHT22;10788;47.930;9.766;2022-07-29T03:18:49;17.10;99.90
21261;DHT22;10788;47.930;9.766;2022-07-29T03:21:15;17.10;99.90
21261;DHT22;10788;47.930;9.766;2022-07-29T03:23:44;17.10;99.90
21261;DHT22;10788;47.930;9.766;2022-07-29T03:26:13;17.10;99.90
21261;DHT22;10788;47.930;9.766;2022-07-29T03:28:39;17.10;99.90
21261;DHT22;10788;47.930;9.766;2022-07-29T03:31:04;17.10;99.90
21261;DHT22;10788;47.930;9.766;2022-07-29T03:33:30;17.10;99.90
21261;DHT22;10788;47.930;9.766;2022-07-29T03:35:56;17.10;99.90
21261;DHT22;10788;47.930;9.766;2022-07-29T03:38:24;17.00;99.90
21261;DHT22;10788;47.930;9.766;2022-07-29T03:40:54;17.10;99.90
21261;DHT22;10788;47.930;9.766;2022-07-29T03:43:22;17.00;99.90
21261;DHT22;10788;47.930;9.766;2022-07-29T03:45:51;16.90;99.90
21261;DHT22;10788;47.930;9.766;2022-07-29T03:48:20;16.80;99.90
21261;DHT22;10788;47.930;9.766;2022-07-29T03:50:46;16.80;99.90
21261;DHT22;10788;47.930;9.766;2022-07-29T03:53:12;16.80;99.90
21261;DHT22;10788;47.930;9.766;2022-07-29T03:55:44;16.80;99.90
21261;DHT22;10788;47.930;9.766;2022-07-29T03:58:11;16.70;99.90
21261;DHT22;10788;47.930;9.766;2022-07-29T04:00:38;16.60;99.90
21261;DHT22;10788;47.930;9.766;2022-07-29T04:03:04;16.60;99.90
21261;DHT22;10788;47.930;9.766;2022-07-29T04:05:30;16.70;99.90
21261;DHT22;10788;47.930;9.766;2022-07-29T04:07:56;16.60;99.90
21261;DHT22;10788;47.930;9.766;2022-07-29T04:10:22;16.60;99.90
21261;DHT22;10788;47.930;9.766;2022-07-29T04:12:50;16.50;99.90
21261;DHT22;10788;47.930;9.766;2022-07-29T04:15:16;16.50;99.90
21261;DHT22;10788;47.930;9.766;2022-07-29T04:17:42;16.40;99.90
21261;DHT22;10788;47.930;9.766;2022-07-29T04:20:08;16.40;99.90
21261;DHT22;10788;47.930;9.766;2022-07-29T04:22:34;16.40;99.90
21261;DHT22;10788;47.930;9.766;2022-07-29T04:25:00;16.40;99.90
21261;DHT22;10788;47.930;9.766;2022-07-29T04:27:25;16.40;99.90
21261;DHT22;10788;47.930;9.766;2022-07-29T04:29:51;16.40;99.90
21261;DHT22;10788;47.930;9.766;2022-07-29T04:32:17;16.40;99.90
21261;DHT22;10788;47.930;9.766;2022-07-29T04:34:42;16.50;99.90
21261;DHT22;10788;47.930;9.766;2022-07-29T04:37:08;16.50;99.90
21261;DHT22;10788;47.930;9.766;2022-07-29T04:39:34;16.50;99.90
21261;DHT22;10788;47.930;9.766;2022-07-29T04:41:59;16.50;99.90
21261;DHT22;10788;47.930;9.766;2022-07-29T04:44:25;16.50;99.90
21261;DHT22;10788;47.930;9.766;2022-07-29T04:46:51;16.60;99.90
21261;DHT22;10788;47.930;9.766;2022-07-29T04:49:16;16.60;99.90
21261;DHT22;10788;47.930;9.766;2022-07-29T04:51:42;16.70;99.90
21261;DHT22;10788;47.930;9.766;2022-07-29T04:54:08;16.70;99.90
21261;DHT22;10788;47.930;9.766;2022-07-29T04:56:33;16.80;99.90
21261;DHT22;10788;47.930;9.766;2022-07-29T04:58:59;16.70;99.90
21261;DHT22;10788;47.930;9.766;2022-07-29T05:01:24;16.80;99.90
21261;DHT22;10788;47.930;9.766;2022-07-29T05:03:50;16.70;99.90
21261;DHT22;10788;47.930;9.766;2022-07-29T05:06:16;16.70;99.90
21261;DHT22;10788;47.930;9.766;2022-07-29T05:08:41;16.80;99.90
21261;DHT22;10788;47.930;9.766;2022-07-29T05:11:07;16.90;99.90
21261;DHT22;10788;47.930;9.766;2022-07-29T05:13:33;17.00;99.90
21261;DHT22;10788;47.930;9.766;2022-07-29T05:15:59;17.10;99.90
21261;DHT22;10788;47.930;9.766;2022-07-29T05:18:25;17.10;99.90
21261;DHT22;10788;47.930;9.766;2022-07-29T05:20:51;17.20;99.90
21261;DHT22;10788;47.930;9.766;2022-07-29T05:23:17;17.30;99.90
21261;DHT22;10788;47.930;9.766;2022-07-29T05:25:43;17.30;99.90
21261;DHT22;10788;47.930;9.766;2022-07-29T05:28:08;17.40;99.90
21261;DHT22;10788;47.930;9.766;2022-07-29T05:30:34;17.40;99.90
21261;DHT22;10788;47.930;9.766;2022-07-29T05:33:00;17.50;99.90
21261;DHT22;10788;47.930;9.766;2022-07-29T05:35:26;17.50;99.90
21261;DHT22;10788;47.930;9.766;2022-07-29T05:37:51;17.60;99.90
21261;DHT22;10788;47.930;9.766;2022-07-29T05:40:17;17.60;99.90
21261;DHT22;10788;47.930;9.766;2022-07-29T05:42:43;17.60;99.90
21261;DHT22;10788;47.930;9.766;2022-07-29T05:45:09;17.60;99.90
21261;DHT22;10788;47.930;9.766;2022-07-29T05:47:34;17.70;99.90
21261;DHT22;10788;47.930;9.766;2022-07-29T05:50:00;17.60;99.90
21261;DHT22;10788;47.930;9.766;2022-07-29T05:52:26;17.70;99.90
21261;DHT22;10788;47.930;9.766;2022-07-29T05:54:51;17.70;99.90
21261;DHT22;10788;47.930;9.766;2022-07-29T05:57:18;17.80;99.90
21261;DHT22;10788;47.930;9.766;2022-07-29T05:59:44;17.80;99.90
21261;DHT22;10788;47.930;9.766;2022-07-29T06:02:10;17.80;99.90
21261;DHT22;10788;47.930;9.766;2022-07-29T06:04:36;17.80;99.90
21261;DHT22;10788;47.930;9.766;2022-07-29T06:07:02;17.80;99.90
21261;DHT22;10788;47.930;9.766;2022-07-29T06:09:28;17.90;99.90
21261;DHT22;10788;47.930;9.766;2022-07-29T06:11:53;17.90;99.90
21261;DHT22;10788;47.930;9.766;2022-07-29T06:14:19;17.90;99.90
21261;DHT22;10788;47.930;9.766;2022-07-29T06:16:45;18.00;99.90
21261;DHT22;10788;47.930;9.766;2022-07-29T06:19:10;18.00;99.90
21261;DHT22;10788;47.930;9.766;2022-07-29T06:21:36;18.00;99.90
21261;DHT22;10788;47.930;9.766;2022-07-29T06:24:02;18.00;99.90
21261;DHT22;10788;47.930;9.766;2022-07-29T06:26:27;18.00;99.90
21261;DHT22;10788;47.930;9.766;2022-07-29T06:28:53;18.00;99.90
21261;DHT22;10788;47.930;9.766;2022-07-29T06:31:19;18.00;99.90
21261;DHT22;10788;47.930;9.766;2022-07-29T06:33:44;18.00;99.90
21261;DHT22;10788;47.930;9.766;2022-07-29T06:36:10;18.10;99.90
21261;DHT22;10788;47.930;9.766;2022-07-29T06:38:36;18.00;99.90
21261;DHT22;10788;47.930;9.766;2022-07-29T06:41:03;18.00;99.90
21261;DHT22;10788;47.930;9.766;2022-07-29T06:43:41;18.00;99.90
21261;DHT22;10788;47.930;9.766;2022-07-29T06:46:09;18.10;99.90
21261;DHT22;10788;47.930;9.766;2022-07-29T06:48:36;18.10;99.90
21261;DHT22;10788;47.930;9.766;2022-07-29T06:51:02;18.20;99.90
21261;DHT22;10788;47.930;9.766;2022-07-29T06:53:31;18.10;99.90
21261;DHT22;10788;47.930;9.766;2022-07-29T06:55:57;18.20;99.90
21261;DHT22;10788;47.930;9.766;2022-07-29T06:58:24;18.20;99.90
21261;DHT22;10788;47.930;9.766;2022-07-29T07:00:49;18.30;99.90
21261;DHT22;10788;47.930;9.766;2022-07-29T07:03:16;18.30;99.90
21261;DHT22;10788;47.930;9.766;2022-07-29T07:05:42;18.30;99.90
21261;DHT22;10788;47.930;9.766;2022-07-29T07:08:08;18.50;99.90
21261;DHT22;10788;47.930;9.766;2022-07-29T07:10:34;18.50;99.90
21261;DHT22;10788;47.930;9.766;2022-07-29T07:13:00;18.60;99.90
21261;DHT22;10788;47.930;9.766;2022-07-29T07:15:26;18.70;99.90
21261;DHT22;10788;47.930;9.766;2022-07-29T07:17:52;18.70;99.90
21261;DHT22;10788;47.930;9.766;2022-07-29T07:20:18;18.90;99.90
21261;DHT22;10788;47.930;9.766;2022-07-29T07:22:43;18.90;99.90
21261;DHT22;10788;47.930;9.766;2022-07-29T07:25:10;19.00;99.90
21261;DHT22;10788;47.930;9.766;2022-07-29T07:27:36;19.10;99.90
21261;DHT22;10788;47.930;9.766;2022-07-29T07:30:06;19.30;99.90
21261;DHT22;10788;47.930;9.766;2022-07-29T07:32:35;19.30;99.90
21261;DHT22;10788;47.930;9.766;2022-07-29T07:35:02;19.40;99.90
21261;DHT22;10788;47.930;9.766;2022-07-29T07:37:28;19.50;99.90
21261;DHT22;10788;47.930;9.766;2022-07-29T07:39:54;19.50;99.90
21261;DHT22;10788;47.930;9.766;2022-07-29T07:42:19;19.60;99.90
21261;DHT22;10788;47.930;9.766;2022-07-29T07:44:45;19.70;99.90
21261;DHT22;10788;47.930;9.766;2022-07-29T07:47:12;19.80;99.90
21261;DHT22;10788;47.930;9.766;2022-07-29T07:49:38;19.90;99.90
21261;DHT22;10788;47.930;9.766;2022-07-29T07:52:04;20.10;99.90
21261;DHT22;10788;47.930;9.766;2022-07-29T07:54:30;20.30;99.90
21261;DHT22;10788;47.930;9.766;2022-07-29T07:56:56;20.50;99.90
21261;DHT22;10788;47.930;9.766;2022-07-29T07:59:21;20.60;99.90
21261;DHT22;10788;47.930;9.766;2022-07-29T08:01:47;20.70;99.90
21261;DHT22;10788;47.930;9.766;2022-07-29T08:04:13;20.80;99.90
21261;DHT22;10788;47.930;9.766;2022-07-29T08:06:39;20.80;99.90
21261;DHT22;10788;47.930;9.766;2022-07-29T08:09:04;20.70;99.90
21261;DHT22;10788;47.930;9.766;2022-07-29T08:11:31;20.60;99.90
21261;DHT22;10788;47.930;9.766;2022-07-29T08:13:57;20.70;99.90
21261;DHT22;10788;47.930;9.766;2022-07-29T08:16:23;20.70;99.90
21261;DHT22;10788;47.930;9.766;2022-07-29T08:18:51;20.70;99.90
21261;DHT22;10788;47.930;9.766;2022-07-29T08:21:17;20.70;99.90
21261;DHT22;10788;47.930;9.766;2022-07-29T08:23:44;20.70;99.90
21261;DHT22;10788;47.930;9.766;2022-07-29T08:26:16;20.70;99.90
21261;DHT22;10788;47.930;9.766;2022-07-29T08:28:43;20.60;99.90
21261;DHT22;10788;47.930;9.766;2022-07-29T08:31:14;20.60;99.90
21261;DHT22;10788;47.930;9.766;2022-07-29T08:33:40;20.60;99.90
21261;DHT22;10788;47.930;9.766;2022-07-29T08:36:06;20.60;99.90
21261;DHT22;10788;47.930;9.766;2022-07-29T08:38:32;20.60;99.90
21261;DHT22;10788;47.930;9.766;2022-07-29T08:40:59;20.60;99.90
21261;DHT22;10788;47.930;9.766;2022-07-29T08:43:27;20.70;99.90
21261;DHT22;10788;47.930;9.766;2022-07-29T08:45:53;20.90;99.90
21261;DHT22;10788;47.930;9.766;2022-07-29T08:48:21;21.10;99.90
21261;DHT22;10788;47.930;9.766;2022-07-29T08:50:48;21.40;99.90
21261;DHT22;10788;47.930;9.766;2022-07-29T08:53:16;21.60;99.90
21261;DHT22;10788;47.930;9.766;2022-07-29T08:55:44;21.90;99.90
21261;DHT22;10788;47.930;9.766;2022-07-29T08:58:10;22.00;99.90
21261;DHT22;10788;47.930;9.766;2022-07-29T09:00:37;22.10;99.90
21261;DHT22;10788;47.930;9.766;2022-07-29T09:03:06;22.40;99.90
21261;DHT22;10788;47.930;9.766;2022-07-29T09:05:33;22.50;99.90
21261;DHT22;10788;47.930;9.766;2022-07-29T09:07:59;22.60;99.90
21261;DHT22;10788;47.930;9.766;2022-07-29T09:10:26;22.60;99.90
21261;DHT22;10788;47.930;9.766;2022-07-29T09:12:52;22.60;99.90
21261;DHT22;10788;47.930;9.766;2022-07-29T09:15:19;22.60;99.90
21261;DHT22;10788;47.930;9.766;2022-07-29T09:17:47;22.60;99.90
21261;DHT22;10788;47.930;9.766;2022-07-29T09:20:17;22.50;99.90
21261;DHT22;10788;47.930;9.766;2022-07-29T09:22:43;22.40;99.90
21261;DHT22;10788;47.930;9.766;2022-07-29T09:25:11;22.40;99.90
21261;DHT22;10788;47.930;9.766;2022-07-29T09:27:37;22.40;99.90
21261;DHT22;10788;47.930;9.766;2022-07-29T09:30:07;22.50;99.90
21261;DHT22;10788;47.930;9.766;2022-07-29T09:32:55;22.50;99.90
21261;DHT22;10788;47.930;9.766;2022-07-29T09:35:22;22.70;99.90
21261;DHT22;10788;47.930;9.766;2022-07-29T09:37:49;22.80;99.90
21261;DHT22;10788;47.930;9.766;2022-07-29T09:40:17;22.80;99.90
21261;DHT22;10788;47.930;9.766;2022-07-29T09:42:43;22.80;99.90
21261;DHT22;10788;47.930;9.766;2022-07-29T09:45:09;22.80;99.90
21261;DHT22;10788;47.930;9.766;2022-07-29T09:47:54;22.60;99.90
21261;DHT22;10788;47.930;9.766;2022-07-29T09:50:22;22.50;99.90
21261;DHT22;10788;47.930;9.766;2022-07-29T09:52:52;22.50;99.90
21261;DHT22;10788;47.930;9.766;2022-07-29T09:55:21;22.40;99.90
21261;DHT22;10788;47.930;9.766;2022-07-29T09:57:46;22.40;99.90
21261;DHT22;10788;47.930;9.766;2022-07-29T10:00:13;22.30;99.90
21261;DHT22;10788;47.930;9.766;2022-07-29T10:02:41;22.20;99.90
21261;DHT22;10788;47.930;9.766;2022-07-29T10:05:24;22.10;99.90
21261;DHT22;10788;47.930;9.766;2022-07-29T10:07:56;22.10;99.90
21261;DHT22;10788;47.930;9.766;2022-07-29T10:10:30;22.10;99.90
21261;DHT22;10788;47.930;9.766;2022-07-29T10:13:11;22.10;99.90
21261;DHT22;10788;47.930;9.766;2022-07-29T10:15:39;22.00;99.90
21261;DHT22;10788;47.930;9.766;2022-07-29T10:18:11;22.00;99.90
21261;DHT22;10788;47.930;9.766;2022-07-29T10:20:37;22.10;99.90
21261;DHT22;10788;47.930;9.766;2022-07-29T10:23:05;22.00;99.90
21261;DHT22;10788;47.930;9.766;2022-07-29T10:25:30;22.10;99.90
21261;DHT22;10788;47.930;9.766;2022-07-29T10:27:57;22.20;99.90
21261;DHT22;10788;47.930;9.766;2022-07-29T10:30:24;22.10;99.90
21261;DHT22;10788;47.930;9.766;2022-07-29T10:35:43;22.00;99.90
21261;DHT22;10788;47.930;9.766;2022-07-29T10:43:59;21.90;99.90
21261;DHT22;10788;47.930;9.766;2022-07-29T10:46:26;21.90;99.90
21261;DHT22;10788;47.930;9.766;2022-07-29T10:52:06;21.90;99.90
21261;DHT22;10788;47.930;9.766;2022-07-29T10:59:46;21.60;99.90
21261;DHT22;10788;47.930;9.766;2022-07-29T11:07:22;21.60;99.90
21261;DHT22;10788;47.930;9.766;2022-07-29T11:15:07;21.30;99.90
21261;DHT22;10788;47.930;9.766;2022-07-29T11:18:03;21.30;99.90
21261;DHT22;10788;47.930;9.766;2022-07-29T11:23:34;21.30;99.90
21261;DHT22;10788;47.930;9.766;2022-07-29T11:29:02;21.50;99.90
21261;DHT22;10788;47.930;9.766;2022-07-29T11:31:38;21.50;99.90
21261;DHT22;10788;47.930;9.766;2022-07-29T11:34:30;21.60;99.90
21261;DHT22;10788;47.930;9.766;2022-07-29T11:39:36;21.90;99.90
21261;DHT22;10788;47.930;9.766;2022-07-29T11:47:29;22.00;99.90
21261;DHT22;10788;47.930;9.766;2022-07-29T11:49:56;22.00;99.90
21261;DHT22;10788;47.930;9.766;2022-07-29T11:52:23;22.00;99.90
21261;DHT22;10788;47.930;9.766;2022-07-29T11:54:50;22.00;99.90
21261;DHT22;10788;47.930;9.766;2022-07-29T11:57:17;22.10;99.90
21261;DHT22;10788;47.930;9.766;2022-07-29T11:59:44;22.30;99.90
21261;DHT22;10788;47.930;9.766;2022-07-29T12:02:11;22.50;99.90
21261;DHT22;10788;47.930;9.766;2022-07-29T12:04:53;22.80;99.90
21261;DHT22;10788;47.930;9.766;2022-07-29T12:07:30;23.00;99.90
21261;DHT22;10788;47.930;9.766;2022-07-29T12:09:56;23.00;99.90
21261;DHT22;10788;47.930;9.766;2022-07-29T12:12:22;22.90;99.90
21261;DHT22;10788;47.930;9.766;2022-07-29T12:14:48;22.90;99.90
21261;DHT22;10788;47.930;9.766;2022-07-29T12:17:33;23.00;99.90
21261;DHT22;10788;47.930;9.766;2022-07-29T12:20:01;23.30;99.90
21261;DHT22;10788;47.930;9.766;2022-07-29T12:22:33;23.50;99.90
21261;DHT22;10788;47.930;9.766;2022-07-29T12:25:04;23.70;99.90
21261;DHT22;10788;47.930;9.766;2022-07-29T12:27:30;23.60;99.90
21261;DHT22;10788;47.930;9.766;2022-07-29T12:30:10;23.70;99.90
21261;DHT22;10788;47.930;9.766;2022-07-29T12:32:42;23.70;99.90
21261;DHT22;10788;47.930;9.766;2022-07-29T12:35:16;23.80;99.90
21261;DHT22;10788;47.930;9.766;2022-07-29T12:37:44;23.90;99.90
21261;DHT22;10788;47.930;9.766;2022-07-29T12:40:12;24.00;99.90
21261;DHT22;10788;47.930;9.766;2022-07-29T12:42:39;24.10;99.90
21261;DHT22;10788;47.930;9.766;2022-07-29T12:45:05;24.10;99.90
21261;DHT22;10788;47.930;9.766;2022-07-29T12:47:32;24.20;99.90
21261;DHT22;10788;47.930;9.766;2022-07-29T12:50:12;24.20;99.90
21261;DHT22;10788;47.930;9.766;2022-07-29T12:52:40;24.10;99.90
21261;DHT22;10788;47.930;9.766;2022-07-29T12:55:06;24.00;99.90
21261;DHT22;10788;47.930;9.766;2022-07-29T12:57:43;24.00;99.90
21261;DHT22;10788;47.930;9.766;2022-07-29T13:00:11;24.10;99.90
21261;DHT22;10788;47.930;9.766;2022-07-29T13:02:39;24.20;99.90
21261;DHT22;10788;47.930;9.766;2022-07-29T13:05:06;24.20;99.90
21261;DHT22;10788;47.930;9.766;2022-07-29T13:07:34;24.20;99.90
21261;DHT22;10788;47.930;9.766;2022-07-29T13:10:18;24.30;99.90
21261;DHT22;10788;47.930;9.766;2022-07-29T13:13:10;24.30;99.90
21261;DHT22;10788;47.930;9.766;2022-07-29T13:15:41;24.40;99.90
21261;DHT22;10788;47.930;9.766;2022-07-29T13:18:30;24.50;99.90
21261;DHT22;10788;47.930;9.766;2022-07-29T13:20:56;24.50;99.90
21261;DHT22;10788;47.930;9.766;2022-07-29T13:23:22;24.60;99.90
21261;DHT22;10788;47.930;9.766;2022-07-29T13:25:48;24.60;99.90
21261;DHT22;10788;47.930;9.766;2022-07-29T13:28:14;24.70;99.90
21261;DHT22;10788;47.930;9.766;2022-07-29T13:30:40;24.70;99.90
21261;DHT22;10788;47.930;9.766;2022-07-29T13:33:09;24.80;99.90
21261;DHT22;10788;47.930;9.766;2022-07-29T13:35:34;24.80;99.90
21261;DHT22;10788;47.930;9.766;2022-07-29T13:38:00;24.90;99.90
21261;DHT22;10788;47.930;9.766;2022-07-29T13:40:26;24.80;99.90
21261;DHT22;10788;47.930;9.766;2022-07-29T13:42:51;24.80;99.90
21261;DHT22;10788;47.930;9.766;2022-07-29T13:45:17;24.80;99.90
21261;DHT22;10788;47.930;9.766;2022-07-29T13:47:43;24.80;99.90
21261;DHT22;10788;47.930;9.766;2022-07-29T13:50:09;24.60;99.90
21261;DHT22;10788;47.930;9.766;2022-07-29T13:52:36;24.70;99.90
21261;DHT22;10788;47.930;9.766;2022-07-29T13:55:03;24.70;99.90
21261;DHT22;10788;47.930;9.766;2022-07-29T13:57:29;24.70;99.90
21261;DHT22;10788;47.930;9.766;2022-07-29T13:59:55;24.70;99.90
21261;DHT22;10788;47.930;9.766;2022-07-29T14:02:21;24.70;99.90
21261;DHT22;10788;47.930;9.766;2022-07-29T14:04:47;24.70;99.90
21261;DHT22;10788;47.930;9.766;2022-07-29T14:07:13;24.70;99.90
21261;DHT22;10788;47.930;9.766;2022-07-29T14:09:39;24.70;99.90
21261;DHT22;10788;47.930;9.766;2022-07-29T14:12:04;24.70;99.90
21261;DHT22;10788;47.930;9.766;2022-07-29T14:14:30;24.70;99.90
21261;DHT22;10788;47.930;9.766;2022-07-29T14:16:58;24.70;99.90
21261;DHT22;10788;47.930;9.766;2022-07-29T14:19:24;24.70;99.90
21261;DHT22;10788;47.930;9.766;2022-07-29T14:21:49;24.70;99.90
21261;DHT22;10788;47.930;9.766;2022-07-29T14:24:15;24.60;99.90
21261;DHT22;10788;47.930;9.766;2022-07-29T14:26:40;24.50;99.90
21261;DHT22;10788;47.930;9.766;2022-07-29T14:29:06;24.50;99.90
21261;DHT22;10788;47.930;9.766;2022-07-29T14:31:32;24.50;99.90
21261;DHT22;10788;47.930;9.766;2022-07-29T14:33:58;24.50;99.90
21261;DHT22;10788;47.930;9.766;2022-07-29T14:36:23;24.50;99.90
21261;DHT22;10788;47.930;9.766;2022-07-29T14:38:49;24.40;99.90
21261;DHT22;10788;47.930;9.766;2022-07-29T14:41:15;24.30;99.90
21261;DHT22;10788;47.930;9.766;2022-07-29T14:43:40;24.40;99.90
21261;DHT22;10788;47.930;9.766;2022-07-29T14:46:06;24.40;99.90
21261;DHT22;10788;47.930;9.766;2022-07-29T14:48:33;24.40;99.90
21261;DHT22;10788;47.930;9.766;2022-07-29T14:50:58;24.40;99.90
21261;DHT22;10788;47.930;9.766;2022-07-29T14:53:24;24.30;99.90
21261;DHT22;10788;47.930;9.766;2022-07-29T14:55:50;24.30;99.90
21261;DHT22;10788;47.930;9.766;2022-07-29T14:58:16;24.20;99.90
21261;DHT22;10788;47.930;9.766;2022-07-29T15:00:41;24.10;99.90
21261;DHT22;10788;47.930;9.766;2022-07-29T15:03:07;24.00;99.90
21261;DHT22;10788;47.930;9.766;2022-07-29T15:05:35;24.10;99.90
21261;DHT22;10788;47.930;9.766;2022-07-29T15:08:02;23.90;99.90
21261;DHT22;10788;47.930;9.766;2022-07-29T15:10:28;23.60;99.90
21261;DHT22;10788;47.930;9.766;2022-07-29T15:12:54;23.10;99.90
21261;DHT22;10788;47.930;9.766;2022-07-29T15:15:20;22.70;99.90
21261;DHT22;10788;47.930;9.766;2022-07-29T15:17:46;22.20;99.90
21261;DHT22;10788;47.930;9.766;2022-07-29T15:20:11;21.80;99.90
21261;DHT22;10788;47.930;9.766;2022-07-29T15:22:37;21.40;99.90
21261;DHT22;10788;47.930;9.766;2022-07-29T15:25:04;21.20;99.90
21261;DHT22;10788;47.930;9.766;2022-07-29T15:27:30;21.10;99.90
21261;DHT22;10788;47.930;9.766;2022-07-29T15:29:56;21.10;99.90
21261;DHT22;10788;47.930;9.766;2022-07-29T15:32:21;21.00;99.90
21261;DHT22;10788;47.930;9.766;2022-07-29T15:34:47;21.00;99.90
21261;DHT22;10788;47.930;9.766;2022-07-29T15:37:12;21.00;99.90
21261;DHT22;10788;47.930;9.766;2022-07-29T15:39:38;21.00;99.90
21261;DHT22;10788;47.930;9.766;2022-07-29T15:42:04;20.80;99.90
21261;DHT22;10788;47.930;9.766;2022-07-29T15:44:30;20.60;99.90
21261;DHT22;10788;47.930;9.766;2022-07-29T15:46:57;20.40;99.90
21261;DHT22;10788;47.930;9.766;2022-07-29T15:49:30;20.30;99.90
21261;DHT22;10788;47.930;9.766;2022-07-29T15:52:00;20.10;99.90
21261;DHT22;10788;47.930;9.766;2022-07-29T15:54:28;19.90;99.90
21261;DHT22;10788;47.930;9.766;2022-07-29T15:56:54;19.70;99.90
21261;DHT22;10788;47.930;9.766;2022-07-29T15:59:21;19.40;99.90
21261;DHT22;10788;47.930;9.766;2022-07-29T16:01:46;19.10;99.90
21261;DHT22;10788;47.930;9.766;2022-07-29T16:04:12;19.00;99.90
21261;DHT22;10788;47.930;9.766;2022-07-29T16:06:38;18.70;99.90
21261;DHT22;10788;47.930;9.766;2022-07-29T16:09:04;18.60;99.90
21261;DHT22;10788;47.930;9.766;2022-07-29T16:11:29;18.50;99.90
21261;DHT22;10788;47.930;9.766;2022-07-29T16:13:55;18.40;99.90
21261;DHT22;10788;47.930;9.766;2022-07-29T16:16:21;18.50;99.90
21261;DHT22;10788;47.930;9.766;2022-07-29T16:18:46;18.50;99.90
21261;DHT22;10788;47.930;9.766;2022-07-29T16:21:12;18.50;99.90
21261;DHT22;10788;47.930;9.766;2022-07-29T16:23:39;18.60;99.90
21261;DHT22;10788;47.930;9.766;2022-07-29T16:26:05;18.60;99.90